sensor_id;sensor_type;location;lat;lon;timestamp;temperature;humidity
41060;DHT22;26811;53.160;8.202;2024-01-25T00:03:14;7.40;99.90
41060;DHT22;26811;53.160;8.202;2024-01-25T00:08:15;7.30;99.90
41060;DHT22;26811;53.160;8.202;2024-01-25T00:13:16;7.30;99.90
41060;DHT22;26811;53.160;8.202;2024-01-25T00:18:16;7.20;99.90
41060;DHT22;26811;53.160;8.202;2024-01-25T00:23:17;7.20;99.90
41060;DHT22;26811;53.160;8.202;2024-01-25T00:28:17;7.10;99.90
41060;DHT22;26811;53.160;8.202;2024-01-25T00:33:18;7.10;99.90
41060;DHT22;26811;53.160;8.202;2024-01-25T00:38:19;7.00;99.90
41060;DHT22;26811;53.160;8.202;2024-01-25T00:43:20;7.00;99.90
41060;DHT22;26811;53.160;8.202;2024-01-25T00:48:20;7.00;99.90
41060;DHT22;26811;53.160;8.202;2024-01-25T00:53:21;7.00;99.90
41060;DHT22;26811;53.160;8.202;2024-01-25T00:58:22;7.10;99.90
41060;DHT22;26811;53.160;8.202;2024-01-25T01:03:23;7.20;99.90
41060;DHT22;26811;53.160;8.202;2024-01-25T01:08:24;7.10;99.90
41060;DHT22;26811;53.160;8.202;2024-01-25T01:13:25;7.10;99.90
41060;DHT22;26811;53.160;8.202;2024-01-25T01:18:25;7.00;99.90
41060;DHT22;26811;53.160;8.202;2024-01-25T01:23:26;7.00;99.90
41060;DHT22;26811;53.160;8.202;2024-01-25T01:28:26;7.00;99.90
41060;DHT22;26811;53.160;8.202;2024-01-25T01:33:27;7.00;99.90
41060;DHT22;26811;53.160;8.202;2024-01-25T01:38:27;6.90;99.90
41060;DHT22;26811;53.160;8.202;2024-01-25T01:43:28;6.90;99.90
41060;DHT22;26811;53.160;8.202;2024-01-25T01:48:28;6.90;99.90
41060;DHT22;26811;53.160;8.202;2024-01-25T01:53:29;6.80;99.90
41060;DHT22;26811;53.160;8.202;2024-01-25T01:58:30;6.80;99.90
41060;DHT22;26811;53.160;8.202;2024-01-25T02:03:32;6.70;99.90
41060;DHT22;26811;53.160;8.202;2024-01-25T02:08:32;6.70;99.90
41060;DHT22;26811;53.160;8.202;2024-01-25T02:13:33;6.70;99.90
41060;DHT22;26811;53.160;8.202;2024-01-25T02:18:34;6.70;99.90
41060;DHT22;26811;53.160;8.202;2024-01-25T02:23:37;6.70;99.90
41060;DHT22;26811;53.160;8.202;2024-01-25T02:28:38;6.70;99.90
41060;DHT22;26811;53.160;8.202;2024-01-25T02:33:38;6.70;99.90
41060;DHT22;26811;53.160;8.202;2024-01-25T02:38:39;6.70;99.90
41060;DHT22;26811;53.160;8.202;2024-01-25T02:43:39;6.70;99.90
41060;DHT22;26811;53.160;8.202;2024-01-25T02:48:40;6.60;99.90
41060;DHT22;26811;53.160;8.202;2024-01-25T02:53:41;6.60;99.90
41060;DHT22;26811;53.160;8.202;2024-01-25T02:58:41;6.60;99.90
41060;DHT22;26811;53.160;8.202;2024-01-25T03:03:42;6.50;99.90
41060;DHT22;26811;53.160;8.202;2024-01-25T03:08:42;6.50;99.90
41060;DHT22;26811;53.160;8.202;2024-01-25T03:13:43;6.50;99.90
41060;DHT22;26811;53.160;8.202;2024-01-25T03:18:43;6.50;99.90
41060;DHT22;26811;53.160;8.202;2024-01-25T03:23:44;6.50;99.90
41060;DHT22;26811;53.160;8.202;2024-01-25T03:28:45;6.50;99.90
41060;DHT22;26811;53.160;8.202;2024-01-25T03:33:45;6.50;99.90
41060;DHT22;26811;53.160;8.202;2024-01-25T03:38:46;6.50;99.90
41060;DHT22;26811;53.160;8.202;2024-01-25T03:43:46;6.50;99.90
41060;DHT22;26811;53.160;8.202;2024-01-25T03:48:47;6.50;99.90
41060;DHT22;26811;53.160;8.202;2024-01-25T03:53:47;6.50;99.90
41060;DHT22;26811;53.160;8.202;2024-01-25T03:58:48;6.50;99.90
41060;DHT22;26811;53.160;8.202;2024-01-25T04:03:49;6.60;99.90
41060;DHT22;26811;53.160;8.202;2024-01-25T04:08:49;6.60;99.90
41060;DHT22;26811;53.160;8.202;2024-01-25T04:13:50;6.60;99.90
41060;DHT22;26811;53.160;8.202;2024-01-25T04:18:50;6.50;99.90
41060;DHT22;26811;53.160;8.202;2024-01-25T04:23:51;6.60;99.90
41060;DHT22;26811;53.160;8.202;2024-01-25T04:28:51;6.60;99.90
41060;DHT22;26811;53.160;8.202;2024-01-25T04:33:52;6.60;99.90
41060;DHT22;26811;53.160;8.202;2024-01-25T04:38:52;6.50;99.90
41060;DHT22;26811;53.160;8.202;2024-01-25T04:43:53;6.40;99.90
41060;DHT22;26811;53.160;8.202;2024-01-25T04:48:53;6.40;99.90
41060;DHT22;26811;53.160;8.202;2024-01-25T04:53:54;6.30;99.90
41060;DHT22;26811;53.160;8.202;2024-01-25T04:58:54;6.20;99.90
41060;DHT22;26811;53.160;8.202;2024-01-25T05:03:55;6.20;99.90
41060;DHT22;26811;53.160;8.202;2024-01-25T05:08:56;6.10;99.90
41060;DHT22;26811;53.160;8.202;2024-01-25T05:13:56;6.10;99.90
41060;DHT22;26811;53.160;8.202;2024-01-25T05:18:57;6.00;99.90
41060;DHT22;26811;53.160;8.202;2024-01-25T05:23:57;6.00;99.90
41060;DHT22;26811;53.160;8.202;2024-01-25T05:28:58;5.90;99.90
41060;DHT22;26811;53.160;8.202;2024-01-25T05:33:58;6.00;99.90
41060;DHT22;26811;53.160;8.202;2024-01-25T05:38:59;6.00;99.90
41060;DHT22;26811;53.160;8.202;2024-01-25T05:43:59;6.00;99.90
41060;DHT22;26811;53.160;8.202;2024-01-25T05:49:00;6.00;99.90
41060;DHT22;26811;53.160;8.202;2024-01-25T05:54:01;6.10;99.90
41060;DHT22;26811;53.160;8.202;2024-01-25T05:59:01;6.10;99.90
41060;DHT22;26811;53.160;8.202;2024-01-25T06:04:03;6.10;99.90
41060;DHT22;26811;53.160;8.202;2024-01-25T06:09:03;6.10;99.90
41060;DHT22;26811;53.160;8.202;2024-01-25T06:14:05;6.10;99.90
41060;DHT22;26811;53.160;8.202;2024-01-25T06:19:06;6.20;99.90
41060;DHT22;26811;53.160;8.202;2024-01-25T06:24:08;6.10;99.90
41060;DHT22;26811;53.160;8.202;2024-01-25T06:29:08;6.00;99.90
41060;DHT22;26811;53.160;8.202;2024-01-25T06:34:09;6.00;99.90
41060;DHT22;26811;53.160;8.202;2024-01-25T06:39:10;6.00;99.90
41060;DHT22;26811;53.160;8.202;2024-01-25T06:44:10;6.00;99.90
41060;DHT22;26811;53.160;8.202;2024-01-25T06:49:11;6.00;99.90
41060;DHT22;26811;53.160;8.202;2024-01-25T06:54:12;6.00;99.90
41060;DHT22;26811;53.160;8.202;2024-01-25T06:59:12;6.00;99.90
41060;DHT22;26811;53.160;8.202;2024-01-25T07:04:13;6.00;99.90
41060;DHT22;26811;53.160;8.202;2024-01-25T07:09:13;6.00;99.90
41060;DHT22;26811;53.160;8.202;2024-01-25T07:14:14;6.00;99.90
41060;DHT22;26811;53.160;8.202;2024-01-25T07:19:14;6.10;99.90
41060;DHT22;26811;53.160;8.202;2024-01-25T07:24:15;6.10;99.90
41060;DHT22;26811;53.160;8.202;2024-01-25T07:29:16;6.10;99.90
41060;DHT22;26811;53.160;8.202;2024-01-25T07:34:19;6.10;99.90
41060;DHT22;26811;53.160;8.202;2024-01-25T07:39:20;6.10;99.90
41060;DHT22;26811;53.160;8.202;2024-01-25T07:44:21;6.10;99.90
41060;DHT22;26811;53.160;8.202;2024-01-25T07:49:21;6.20;99.90
41060;DHT22;26811;53.160;8.202;2024-01-25T07:54:22;6.20;99.90
41060;DHT22;26811;53.160;8.202;2024-01-25T07:59:23;6.20;99.90
41060;DHT22;26811;53.160;8.202;2024-01-25T08:04:23;6.30;99.90
41060;DHT22;26811;53.160;8.202;2024-01-25T08:09:24;6.30;99.90
41060;DHT22;26811;53.160;8.202;2024-01-25T08:14:25;6.40;99.90
41060;DHT22;26811;53.160;8.202;2024-01-25T08:19:25;6.40;99.90
41060;DHT22;26811;53.160;8.202;2024-01-25T08:24:26;6.40;99.90
41060;DHT22;26811;53.160;8.202;2024-01-25T08:29:27;6.50;99.90
41060;DHT22;26811;53.160;8.202;2024-01-25T08:34:27;6.50;99.90
41060;DHT22;26811;53.160;8.202;2024-01-25T08:39:28;6.50;99.90
41060;DHT22;26811;53.160;8.202;2024-01-25T08:44:28;6.50;99.90
41060;DHT22;26811;53.160;8.202;2024-01-25T08:49:29;6.60;99.90
41060;DHT22;26811;53.160;8.202;2024-01-25T08:54:29;6.60;99.90
41060;DHT22;26811;53.160;8.202;2024-01-25T08:59:30;6.60;99.90
41060;DHT22;26811;53.160;8.202;2024-01-25T09:04:33;6.60;99.90
41060;DHT22;26811;53.160;8.202;2024-01-25T09:09:33;6.70;99.90
41060;DHT22;26811;53.160;8.202;2024-01-25T09:14:34;6.70;99.90
41060;DHT22;26811;53.160;8.202;2024-01-25T09:19:36;6.70;99.90
41060;DHT22;26811;53.160;8.202;2024-01-25T09:24:39;6.70;99.90
41060;DHT22;26811;53.160;8.202;2024-01-25T09:29:42;6.80;99.90
41060;DHT22;26811;53.160;8.202;2024-01-25T09:34:42;6.90;99.90
41060;DHT22;26811;53.160;8.202;2024-01-25T09:39:43;7.10;99.90
41060;DHT22;26811;53.160;8.202;2024-01-25T09:44:44;7.10;99.90
41060;DHT22;26811;53.160;8.202;2024-01-25T09:49:45;7.20;99.90
41060;DHT22;26811;53.160;8.202;2024-01-25T09:54:46;7.20;99.90
41060;DHT22;26811;53.160;8.202;2024-01-25T09:59:47;7.20;99.90
41060;DHT22;26811;53.160;8.202;2024-01-25T10:04:49;7.20;99.90
41060;DHT22;26811;53.160;8.202;2024-01-25T10:09:52;7.10;99.90
41060;DHT22;26811;53.160;8.202;2024-01-25T10:14:53;7.10;99.90
41060;DHT22;26811;53.160;8.202;2024-01-25T10:19:53;7.10;99.90
41060;DHT22;26811;53.160;8.202;2024-01-25T10:24:54;7.20;99.90
41060;DHT22;26811;53.160;8.202;2024-01-25T10:29:56;7.20;99.90
41060;DHT22;26811;53.160;8.202;2024-01-25T10:34:56;7.40;99.90
41060;DHT22;26811;53.160;8.202;2024-01-25T10:39:59;7.50;99.90
41060;DHT22;26811;53.160;8.202;2024-01-25T10:45:00;7.50;99.90
41060;DHT22;26811;53.160;8.202;2024-01-25T10:50:04;7.50;99.90
41060;DHT22;26811;53.160;8.202;2024-01-25T10:55:09;7.40;99.90
41060;DHT22;26811;53.160;8.202;2024-01-25T11:00:13;7.40;99.90
41060;DHT22;26811;53.160;8.202;2024-01-25T11:05:15;7.50;99.90
41060;DHT22;26811;53.160;8.202;2024-01-25T11:10:21;7.50;99.90
41060;DHT22;26811;53.160;8.202;2024-01-25T11:15:23;7.60;99.90
41060;DHT22;26811;53.160;8.202;2024-01-25T11:20:26;7.70;99.90
41060;DHT22;26811;53.160;8.202;2024-01-25T11:25:28;7.70;99.90
41060;DHT22;26811;53.160;8.202;2024-01-25T11:30:34;7.80;99.90
41060;DHT22;26811;53.160;8.202;2024-01-25T11:35:36;7.80;99.90
41060;DHT22;26811;53.160;8.202;2024-01-25T11:40:38;7.70;99.90
41060;DHT22;26811;53.160;8.202;2024-01-25T11:45:42;7.70;99.90
41060;DHT22;26811;53.160;8.202;2024-01-25T11:50:43;7.90;99.90
41060;DHT22;26811;53.160;8.202;2024-01-25T11:55:44;8.20;99.90
41060;DHT22;26811;53.160;8.202;2024-01-25T12:00:45;8.30;99.90
41060;DHT22;26811;53.160;8.202;2024-01-25T12:05:46;8.40;99.90
41060;DHT22;26811;53.160;8.202;2024-01-25T12:10:48;8.40;99.90
41060;DHT22;26811;53.160;8.202;2024-01-25T12:15:49;8.30;99.90
41060;DHT22;26811;53.160;8.202;2024-01-25T12:20:50;8.10;99.90
41060;DHT22;26811;53.160;8.202;2024-01-25T12:25:51;7.80;99.90
41060;DHT22;26811;53.160;8.202;2024-01-25T12:30:51;7.70;99.90
41060;DHT22;26811;53.160;8.202;2024-01-25T12:35:52;7.60;99.90
41060;DHT22;26811;53.160;8.202;2024-01-25T12:40:54;7.60;99.90
41060;DHT22;26811;53.160;8.202;2024-01-25T12:45:54;7.70;99.90
41060;DHT22;26811;53.160;8.202;2024-01-25T12:50:55;7.90;99.90
41060;DHT22;26811;53.160;8.202;2024-01-25T12:55:56;8.00;99.90
41060;DHT22;26811;53.160;8.202;2024-01-25T13:00:56;8.00;99.90
41060;DHT22;26811;53.160;8.202;2024-01-25T13:05:57;8.10;99.90
41060;DHT22;26811;53.160;8.202;2024-01-25T13:10:57;8.20;99.90
41060;DHT22;26811;53.160;8.202;2024-01-25T13:16:01;8.20;99.90
41060;DHT22;26811;53.160;8.202;2024-01-25T13:21:01;8.20;99.90
41060;DHT22;26811;53.160;8.202;2024-01-25T13:26:02;8.10;99.90
41060;DHT22;26811;53.160;8.202;2024-01-25T13:31:02;7.90;99.90
41060;DHT22;26811;53.160;8.202;2024-01-25T13:36:03;7.70;99.90
41060;DHT22;26811;53.160;8.202;2024-01-25T13:41:08;7.60;99.90
41060;DHT22;26811;53.160;8.202;2024-01-25T13:46:09;7.50;99.90
41060;DHT22;26811;53.160;8.202;2024-01-25T13:51:09;7.40;99.90
41060;DHT22;26811;53.160;8.202;2024-01-25T13:56:10;7.40;99.90
41060;DHT22;26811;53.160;8.202;2024-01-25T14:01:18;7.50;99.90
41060;DHT22;26811;53.160;8.202;2024-01-25T14:06:18;7.60;99.90
41060;DHT22;26811;53.160;8.202;2024-01-25T14:11:19;7.70;99.90
41060;DHT22;26811;53.160;8.202;2024-01-25T14:16:19;7.80;99.90
41060;DHT22;26811;53.160;8.202;2024-01-25T14:21:20;7.70;99.90
41060;DHT22;26811;53.160;8.202;2024-01-25T14:26:21;7.70;99.90
41060;DHT22;26811;53.160;8.202;2024-01-25T14:31:21;7.70;99.90
41060;DHT22;26811;53.160;8.202;2024-01-25T14:36:22;7.70;99.90
41060;DHT22;26811;53.160;8.202;2024-01-25T14:41:22;7.70;99.90
41060;DHT22;26811;53.160;8.202;2024-01-25T14:46:23;7.60;99.90
41060;DHT22;26811;53.160;8.202;2024-01-25T14:51:26;7.50;99.90
41060;DHT22;26811;53.160;8.202;2024-01-25T14:56:27;7.50;99.90
41060;DHT22;26811;53.160;8.202;2024-01-25T15:01:30;7.50;99.90
41060;DHT22;26811;53.160;8.202;2024-01-25T15:06:31;7.40;99.90
41060;DHT22;26811;53.160;8.202;2024-01-25T15:11:31;7.40;99.90
41060;DHT22;26811;53.160;8.202;2024-01-25T15:16:40;7.40;99.90
41060;DHT22;26811;53.160;8.202;2024-01-25T15:21:41;7.30;99.90
41060;DHT22;26811;53.160;8.202;2024-01-25T15:26:42;7.30;99.90
41060;DHT22;26811;53.160;8.202;2024-01-25T15:31:43;7.30;99.90
41060;DHT22;26811;53.160;8.202;2024-01-25T15:36:44;7.20;99.90
41060;DHT22;26811;53.160;8.202;2024-01-25T15:41:44;7.10;99.90
41060;DHT22;26811;53.160;8.202;2024-01-25T15:46:49;7.10;99.90
41060;DHT22;26811;53.160;8.202;2024-01-25T15:51:50;7.10;99.90
41060;DHT22;26811;53.160;8.202;2024-01-25T15:56:50;7.00;99.90
41060;DHT22;26811;53.160;8.202;2024-01-25T16:01:52;7.00;99.90
41060;DHT22;26811;53.160;8.202;2024-01-25T16:06:52;7.00;99.90
41060;DHT22;26811;53.160;8.202;2024-01-25T16:11:53;7.00;99.90
41060;DHT22;26811;53.160;8.202;2024-01-25T16:16:53;6.90;99.90
41060;DHT22;26811;53.160;8.202;2024-01-25T16:21:54;6.80;99.90
41060;DHT22;26811;53.160;8.202;2024-01-25T16:26:55;6.80;99.90
41060;DHT22;26811;53.160;8.202;2024-01-25T16:31:55;6.70;99.90
41060;DHT22;26811;53.160;8.202;2024-01-25T16:36:56;6.60;99.90
41060;DHT22;26811;53.160;8.202;2024-01-25T16:41:56;6.50;99.90
41060;DHT22;26811;53.160;8.202;2024-01-25T16:46:57;6.40;99.90
41060;DHT22;26811;53.160;8.202;2024-01-25T16:51:58;6.30;99.90
41060;DHT22;26811;53.160;8.202;2024-01-25T16:56:58;6.30;99.90
41060;DHT22;26811;53.160;8.202;2024-01-25T17:01:59;6.20;99.90
41060;DHT22;26811;53.160;8.202;2024-01-25T17:06:59;6.10;99.90
41060;DHT22;26811;53.160;8.202;2024-01-25T17:12:00;6.10;99.90
41060;DHT22;26811;53.160;8.202;2024-01-25T17:17:00;6.10;99.90
41060;DHT22;26811;53.160;8.202;2024-01-25T17:22:01;6.00;99.90
41060;DHT22;26811;53.160;8.202;2024-01-25T17:27:01;6.00;99.90
41060;DHT22;26811;53.160;8.202;2024-01-25T17:32:02;5.90;99.90
41060;DHT22;26811;53.160;8.202;2024-01-25T17:37:03;5.90;99.90
41060;DHT22;26811;53.160;8.202;2024-01-25T17:42:04;5.80;99.90
41060;DHT22;26811;53.160;8.202;2024-01-25T17:47:05;5.80;99.90
41060;DHT22;26811;53.160;8.202;2024-01-25T17:52:05;5.80;99.90
41060;DHT22;26811;53.160;8.202;2024-01-25T17:57:06;5.80;99.90
41060;DHT22;26811;53.160;8.202;2024-01-25T18:02:06;5.70;99.90
41060;DHT22;26811;53.160;8.202;2024-01-25T18:07:07;5.80;99.90
41060;DHT22;26811;53.160;8.202;2024-01-25T18:12:08;5.80;99.90
41060;DHT22;26811;53.160;8.202;2024-01-25T18:17:08;5.80;99.90
41060;DHT22;26811;53.160;8.202;2024-01-25T18:22:09;5.80;99.90
41060;DHT22;26811;53.160;8.202;2024-01-25T18:27:09;5.80;99.90
41060;DHT22;26811;53.160;8.202;2024-01-25T18:32:10;5.90;99.90
41060;DHT22;26811;53.160;8.202;2024-01-25T18:37:10;5.90;99.90
41060;DHT22;26811;53.160;8.202;2024-01-25T18:42:11;6.00;99.90
41060;DHT22;26811;53.160;8.202;2024-01-25T18:47:12;6.00;99.90
41060;DHT22;26811;53.160;8.202;2024-01-25T18:52:12;6.00;99.90
41060;DHT22;26811;53.160;8.202;2024-01-25T18:57:13;6.00;99.90
41060;DHT22;26811;53.160;8.202;2024-01-25T19:02:14;6.00;99.90
41060;DHT22;26811;53.160;8.202;2024-01-25T19:07:15;6.00;99.90
41060;DHT22;26811;53.160;8.202;2024-01-25T19:12:15;6.00;99.90
41060;DHT22;26811;53.160;8.202;2024-01-25T19:17:16;6.00;99.90
41060;DHT22;26811;53.160;8.202;2024-01-25T19:22:16;6.10;99.90
41060;DHT22;26811;53.160;8.202;2024-01-25T19:27:17;6.10;99.90
41060;DHT22;26811;53.160;8.202;2024-01-25T19:32:17;6.10;99.90
41060;DHT22;26811;53.160;8.202;2024-01-25T19:37:20;6.20;99.90
41060;DHT22;26811;53.160;8.202;2024-01-25T19:42:20;6.20;99.90
41060;DHT22;26811;53.160;8.202;2024-01-25T19:47:21;6.30;99.90
41060;DHT22;26811;53.160;8.202;2024-01-25T19:52:21;6.30;99.90
41060;DHT22;26811;53.160;8.202;2024-01-25T19:57:22;6.30;99.90
41060;DHT22;26811;53.160;8.202;2024-01-25T20:02:23;6.40;99.90
41060;DHT22;26811;53.160;8.202;2024-01-25T20:07:27;6.40;99.90
41060;DHT22;26811;53.160;8.202;2024-01-25T20:12:31;6.50;99.90
41060;DHT22;26811;53.160;8.202;2024-01-25T20:17:36;6.50;99.90
41060;DHT22;26811;53.160;8.202;2024-01-25T20:22:37;6.50;99.90
41060;DHT22;26811;53.160;8.202;2024-01-25T20:27:39;6.50;99.90
41060;DHT22;26811;53.160;8.202;2024-01-25T20:32:39;6.60;99.90
41060;DHT22;26811;53.160;8.202;2024-01-25T20:37:40;6.60;99.90
41060;DHT22;26811;53.160;8.202;2024-01-25T20:42:40;6.60;99.90
41060;DHT22;26811;53.160;8.202;2024-01-25T20:47:41;6.60;99.90
41060;DHT22;26811;53.160;8.202;2024-01-25T20:52:41;6.70;99.90
41060;DHT22;26811;53.160;8.202;2024-01-25T20:57:42;6.70;99.90
41060;DHT22;26811;53.160;8.202;2024-01-25T21:02:43;6.80;99.90
41060;DHT22;26811;53.160;8.202;2024-01-25T21:07:44;6.80;99.90
41060;DHT22;26811;53.160;8.202;2024-01-25T21:12:44;6.90;99.90
41060;DHT22;26811;53.160;8.202;2024-01-25T21:17:45;6.80;99.90
41060;DHT22;26811;53.160;8.202;2024-01-25T21:22:46;6.80;99.90
41060;DHT22;26811;53.160;8.202;2024-01-25T21:27:46;6.80;99.90
41060;DHT22;26811;53.160;8.202;2024-01-25T21:32:47;6.70;99.90
41060;DHT22;26811;53.160;8.202;2024-01-25T21:37:47;6.70;99.90
41060;DHT22;26811;53.160;8.202;2024-01-25T21:42:48;6.70;99.90
41060;DHT22;26811;53.160;8.202;2024-01-25T21:47:50;6.70;99.90
41060;DHT22;26811;53.160;8.202;2024-01-25T21:52:50;6.70;99.90
41060;DHT22;26811;53.160;8.202;2024-01-25T21:57:51;6.60;99.90
41060;DHT22;26811;53.160;8.202;2024-01-25T22:02:54;6.60;99.90
41060;DHT22;26811;53.160;8.202;2024-01-25T22:07:55;6.60;99.90
41060;DHT22;26811;53.160;8.202;2024-01-25T22:12:55;6.60;99.90
41060;DHT22;26811;53.160;8.202;2024-01-25T22:17:56;6.60;99.90
41060;DHT22;26811;53.160;8.202;2024-01-25T22:22:57;6.60;99.90
41060;DHT22;26811;53.160;8.202;2024-01-25T22:27:57;6.60;99.90
41060;DHT22;26811;53.160;8.202;2024-01-25T22:33:00;6.60;99.90
41060;DHT22;26811;53.160;8.202;2024-01-25T22:38:01;6.60;99.90
41060;DHT22;26811;53.160;8.202;2024-01-25T22:43:03;6.60;99.90
41060;DHT22;26811;53.160;8.202;2024-01-25T22:48:04;6.70;99.90
41060;DHT22;26811;53.160;8.202;2024-01-25T22:53:04;6.70;99.90
41060;DHT22;26811;53.160;8.202;2024-01-25T22:58:05;6.70;99.90
41060;DHT22;26811;53.160;8.202;2024-01-25T23:03:05;6.70;99.90
41060;DHT22;26811;53.160;8.202;2024-01-25T23:08:06;6.70;99.90
41060;DHT22;26811;53.160;8.202;2024-01-25T23:13:07;6.70;99.90
41060;DHT22;26811;53.160;8.202;2024-01-25T23:18:07;6.80;99.90
41060;DHT22;26811;53.160;8.202;2024-01-25T23:23:08;6.80;99.90
41060;DHT22;26811;53.160;8.202;2024-01-25T23:28:09;6.80;99.90
41060;DHT22;26811;53.160;8.202;2024-01-25T23:33:10;6.80;99.90
41060;DHT22;26811;53.160;8.202;2024-01-25T23:38:10;6.90;99.90
41060;DHT22;26811;53.160;8.202;2024-01-25T23:43:11;6.90;99.90
41060;DHT22;26811;53.160;8.202;2024-01-25T23:48:11;6.90;99.90
41060;DHT22;26811;53.160;8.202;2024-01-25T23:53:12;6.90;99.90
41060;DHT22;26811;53.160;8.202;2024-01-25T23:58:12;6.90;99.90
